Nord Nanami — 3EWR2 — position and weather

sailwx.info

Track history (hours):
 
Tides and Currents Weather Stations Pressure Air Temp Water Temp Dewpoint Dewpoint Depression Visibility Wind Speed Wind Dir Waves Ship Positions

Nord Nanami

Last reported at 2015-Jul-02 03:13 UTC. Time now 2015-Jul-30 23:03 UTC.
Position N 01°16' E 104°14'.
Warning: this ship's position is 28 days out of date.

Length 180 m; draft 5.3 m.

Type: Cargo ship. MMSI: 373694000.

Date/timePositionNaut miles runAvg speedWind from/ knotsBaromVisibWave heightAir tempDewpointWater temp
2015-Jul-02 03:13N 01°16' E 104°14'913.3
2015-Jul-02 02:32N 01°15' E 104°05'7 6.8
2015-Jul-02 01:33N 01°17' E 103°58'0 0.3
2015-Jul-02 00:30N 01°17' E 103°58'0 0.1
2015-Jul-01 23:33N 01°17' E 103°58'0 0.1
2015-Jul-01 22:30N 01°17' E 103°58'0 0.0
2015-Jul-01 21:30N 01°17' E 103°58'0 0.0
2015-Jul-01 16:30N 01°17' E 103°58'0 0.1
2015-Jul-01 15:33N 01°17' E 103°58'0 0.1
2015-Jul-01 14:33N 01°17' E 103°58'0 0.1
2015-Jul-01 13:33N 01°17' E 103°58'0 0.0
2015-Jul-01 12:32N 01°17' E 103°58'0 0.0
2015-Jul-01 11:33N 01°17' E 103°58'0 0.0
2015-Jul-01 10:33N 01°17' E 103°58'0 0.1
2015-Jul-01 09:33N 01°17' E 103°58'2 2.1
2015-Jul-01 08:33N 01°15' E 103°57'9 9.2
2015-Jul-01 07:33N 01°12' E 103°48'7 7.4
2015-Jul-01 06:32N 01°13' E 103°41'5 5.2
2015-Jul-01 05:33N 01°18' E 103°39'  
Track history (hours):
 
Tides and Currents Weather Stations Pressure Air Temp Water Temp Dewpoint Dewpoint Depression Visibility Wind Speed Wind Dir Waves Ship Positions

Nord Nanami

Last reported at 2015-Jul-02 03:13 UTC. Time now 2015-Jul-30 23:03 UTC.
Position N 01°16' E 104°14'.
Warning: this ship's position is 28 days out of date.

Length 180 m; draft 5.3 m.

Type: Cargo ship. MMSI: 373694000.

Date/timePositionNaut miles runAvg speedWind from/ knotsBaromVisibWave heightAir tempDewpointWater temp
2015-Jul-02 03:13N 01°16' E 104°14'913.3
2015-Jul-02 02:32N 01°15' E 104°05'7 6.8
2015-Jul-02 01:33N 01°17' E 103°58'0 0.3
2015-Jul-02 00:30N 01°17' E 103°58'0 0.1
2015-Jul-01 23:33N 01°17' E 103°58'0 0.1
2015-Jul-01 22:30N 01°17' E 103°58'0 0.0
2015-Jul-01 21:30N 01°17' E 103°58'0 0.0
2015-Jul-01 16:30N 01°17' E 103°58'0 0.1
2015-Jul-01 15:33N 01°17' E 103°58'0 0.1
2015-Jul-01 14:33N 01°17' E 103°58'0 0.1
2015-Jul-01 13:33N 01°17' E 103°58'0 0.0
2015-Jul-01 12:32N 01°17' E 103°58'0 0.0
2015-Jul-01 11:33N 01°17' E 103°58'0 0.0
2015-Jul-01 10:33N 01°17' E 103°58'0 0.1
2015-Jul-01 09:33N 01°17' E 103°58'2 2.1
2015-Jul-01 08:33N 01°15' E 103°57'9 9.2
2015-Jul-01 07:33N 01°12' E 103°48'7 7.4
2015-Jul-01 06:32N 01°13' E 103°41'5 5.2
2015-Jul-01 05:33N 01°18' E 103°39'  

Dump ship's entire track history